Terminal Aerodrome Forecast
Issued by NWS

Home | Current Version | Previous Version | Graphics & Text | Print | Product List | Glossary On
Versions: 1 2 3 4 5 6 7 8 9 10 11 12 13 14 15 16 17 18 19 20 21 22 23 24 25 26
000
FTUS41 KCLE 261700 RRA
TAFFDY
TAF
KFDY 261741Z 2618/2718 24006KT P6SM SCT035 BKN200
      TEMPO 2621/2701 27020G35KT 2SM TSRA BR OVC035CB
     FM270100 27006KT P6SM BKN120 OVC250
     FM270700 35006KT P6SM SCT020 BKN250
     FM271200 02006KT P6SM SCT020 BKN250=

USA.gov is the U.S. government's official web portal to all federal, state and local government web resources and services.